Time;durP1;ratioP1;P1;durP2;ratioP2;P2;SDS_P1;SDS_P2;PMS_P1;PMS_P2;Temp;Humidity;BMP_temperature;BMP_pressure;BME280_temperature;BME280_humidity;BME280_pressure;Samples;Min_cycle;Max_cycle;Signal;HPM_P1;HPM_P2
2023/10/08 00:01:12;;;;;;;39.85;10.95;;;;;;;;;;5118144;27;20043;-72
2023/10/08 00:03:40;;;;;;;33.53;7.93;;;;;;;;;;5148348;27;20046;-70
2023/10/08 00:06:06;;;;;;;21.58;5.63;;;;;;;;;;5131350;27;20047;-73
2023/10/08 00:08:35;;;;;;;18.52;5.53;;;;;;;;;;5135507;27;20110;-71
2023/10/08 00:11:06;;;;;;;21.67;5.65;;;;;;;;;;5135232;27;20578;-72
2023/10/08 00:13:39;;;;;;;18.55;6.00;;;;;;;;;;5117697;27;20363;-71
2023/10/08 00:16:11;;;;;;;17.85;5.90;;;;;;;;;;5118128;27;20059;-72
2023/10/08 00:18:41;;;;;;;16.50;4.75;;;;;;;;;;5135399;27;20047;-72
2023/10/08 00:23:41;;;;;;;19.80;3.60;;;;;;;;;;5135894;27;20043;-71
2023/10/08 00:26:08;;;;;;;10.65;3.25;;;;;;;;;;5134831;27;20050;-72
2023/10/08 00:28:34;;;;;;;11.95;2.53;;;;;;;;;;5135303;27;20375;-72
2023/10/08 00:31:11;;;;;;;6.70;2.58;;;;;;;;;;5135821;27;20051;-71
2023/10/08 00:33:37;;;;;;;8.43;1.80;;;;;;;;;;5135008;27;20510;-72
2023/10/08 00:36:17;;;;;;;6.00;0.70;;;;;;;;;;5134940;27;20054;-71
2023/10/08 00:38:59;;;;;;;3.30;0.57;;;;;;;;;;5117069;27;20598;-72
2023/10/08 00:41:30;;;;;;;7.97;0.80;;;;;;;;;;5134771;27;20051;-73
2023/10/08 00:43:59;;;;;;;4.65;1.00;;;;;;;;;;5117618;27;20043;-71
2023/10/08 00:46:32;;;;;;;4.90;0.82;;;;;;;;;;5134802;27;20131;-72
2023/10/08 00:49:14;;;;;;;4.75;1.00;;;;;;;;;;5116416;27;20103;-71
2023/10/08 00:51:45;;;;;;;3.97;1.10;;;;;;;;;;5135410;27;20050;-71
2023/10/08 00:54:17;;;;;;;7.05;1.30;;;;;;;;;;5116644;27;20099;-72
2023/10/08 00:56:58;;;;;;;6.85;1.15;;;;;;;;;;5116862;27;20130;-71
2023/10/08 00:59:33;;;;;;;6.72;1.42;;;;;;;;;;5134871;27;20538;-71
2023/10/08 01:02:05;;;;;;;5.93;0.90;;;;;;;;;;5134264;27;20082;-70
2023/10/08 01:04:34;;;;;;;4.88;1.42;;;;;;;;;;5101526;27;20047;-70
2023/10/08 01:07:19;;;;;;;3.80;1.20;;;;;;;;;;5135424;27;20414;-71
2023/10/08 01:09:50;;;;;;;6.07;1.52;;;;;;;;;;5134608;27;20043;-71
2023/10/08 01:12:20;;;;;;;6.18;1.00;;;;;;;;;;5099856;28;20047;-71
2023/10/08 01:14:48;;;;;;;3.28;0.90;;;;;;;;;;5134218;28;20054;-71
2023/10/08 01:17:16;;;;;;;3.30;0.98;;;;;;;;;;5116412;28;20062;-71
2023/10/08 01:19:45;;;;;;;5.30;0.90;;;;;;;;;;5115695;28;20089;-70
2023/10/08 01:22:22;;;;;;;4.30;0.80;;;;;;;;;;5134131;28;20173;-71
2023/10/08 01:24:48;;;;;;;;;;;;;;;;;;5099799;28;20051;-71
2023/10/08 01:27:24;;;;;;;3.17;0.60;;;;;;;;;;5116012;28;19967;-71
2023/10/08 01:29:51;;;;;;;8.85;0.70;;;;;;;;;;5134648;28;20051;-71
2023/10/08 01:32:23;;;;;;;8.52;2.35;;;;;;;;;;5134058;28;20051;-71
2023/10/08 01:34:49;;;;;;;10.30;2.92;;;;;;;;;;5116486;28;20464;-71
2023/10/08 01:37:17;;;;;;;5.25;1.75;;;;;;;;;;5099931;27;20050;-71
2023/10/08 01:39:43;;;;;;;5.97;1.27;;;;;;;;;;5120399;27;20172;-71
2023/10/08 01:42:21;;;;;;;6.63;2.33;;;;;;;;;;5103397;27;20046;-71
2023/10/08 01:44:50;;;;;;;7.72;1.85;;;;;;;;;;5138718;27;20100;-71
2023/10/08 01:47:17;;;;;;;6.05;1.58;;;;;;;;;;5138613;27;20467;-70
2023/10/08 01:49:46;;;;;;;4.95;1.27;;;;;;;;;;5138561;27;20062;-71
2023/10/08 01:52:21;;;;;;;6.50;1.33;;;;;;;;;;5120069;27;20047;-71
2023/10/08 01:54:48;;;;;;;7.13;1.95;;;;;;;;;;5137962;27;20126;-71
2023/10/08 01:57:14;;;;;;;6.75;1.60;;;;;;;;;;5137856;27;20051;-71
2023/10/08 01:59:40;;;;;;;6.68;1.50;;;;;;;;;;5137922;27;20126;-71
2023/10/08 02:02:07;;;;;;;6.50;1.60;;;;;;;;;;5119797;27;20045;-72
2023/10/08 02:04:35;;;;;;;5.05;1.42;;;;;;;;;;5137792;27;20100;-70
2023/10/08 02:07:01;;;;;;;6.20;1.85;;;;;;;;;;5137892;27;20042;-72
2023/10/08 02:09:27;;;;;;;7.95;1.75;;;;;;;;;;5138002;27;20395;-71
2023/10/08 02:11:54;;;;;;;7.47;1.40;;;;;;;;;;5137737;27;20078;-71
2023/10/08 02:14:22;;;;;;;7.10;1.65;;;;;;;;;;5137614;27;20039;-70
2023/10/08 02:16:48;;;;;;;7.15;1.63;;;;;;;;;;5138021;27;20089;-70
2023/10/08 02:19:18;;;;;;;5.55;1.27;;;;;;;;;;5119334;27;20086;-71
2023/10/08 02:21:46;;;;;;;7.22;1.45;;;;;;;;;;5137623;27;20066;-71
2023/10/08 02:24:12;;;;;;;6.20;1.40;;;;;;;;;;5102561;27;20070;-72
2023/10/08 02:26:39;;;;;;;5.28;1.27;;;;;;;;;;5137252;27;20047;-71
2023/10/08 02:29:10;;;;;;;5.95;1.02;;;;;;;;;;5137359;27;20043;-72
2023/10/08 02:31:40;;;;;;;7.45;1.33;;;;;;;;;;5137158;27;20050;-70
2023/10/08 02:34:12;;;;;;;4.80;0.88;;;;;;;;;;5137809;27;20035;-72
2023/10/08 02:36:40;;;;;;;4.30;1.10;;;;;;;;;;5119554;27;20469;-73
2023/10/08 02:39:13;;;;;;;5.45;1.10;;;;;;;;;;5137140;27;20049;-71
2023/10/08 02:41:42;;;;;;;4.82;0.73;;;;;;;;;;5137887;27;20131;-71
2023/10/08 02:44:13;;;;;;;5.80;1.00;;;;;;;;;;5137084;27;20437;-72
2023/10/08 02:46:42;;;;;;;7.18;1.00;;;;;;;;;;5136647;27;20501;-70
2023/10/08 02:49:12;;;;;;;4.82;0.95;;;;;;;;;;5134521;27;20391;-70
2023/10/08 02:51:43;;;;;;;5.88;0.82;;;;;;;;;;5137179;27;20046;-70
2023/10/08 02:54:16;;;;;;;4.65;0.70;;;;;;;;;;5119024;27;20047;-71
2023/10/08 02:56:44;;;;;;;4.00;0.80;;;;;;;;;;5137323;27;20437;-70
2023/10/08 02:59:12;;;;;;;4.30;1.30;;;;;;;;;;5136722;27;20047;-71
2023/10/08 03:01:39;;;;;;;5.05;1.13;;;;;;;;;;5136575;27;20420;-70
2023/10/08 03:04:17;;;;;;;3.30;0.70;;;;;;;;;;5101415;27;20096;-70
2023/10/08 03:06:45;;;;;;;4.57;0.90;;;;;;;;;;5119154;27;20077;-70
2023/10/08 03:09:13;;;;;;;5.45;0.93;;;;;;;;;;5136428;27;20055;-70
2023/10/08 03:11:43;;;;;;;4.60;0.73;;;;;;;;;;5136420;27;20100;-71
2023/10/08 03:14:14;;;;;;;3.72;0.70;;;;;;;;;;5118080;27;20043;-71
2023/10/08 03:16:41;;;;;;;8.30;0.98;;;;;;;;;;5137177;27;20054;-71
2023/10/08 03:19:08;;;;;;;4.70;0.97;;;;;;;;;;5136421;27;20051;-71
2023/10/08 03:24:12;;;;;;;6.07;0.90;;;;;;;;;;5117991;27;20108;-71
2023/10/08 03:26:39;;;;;;;4.05;0.90;;;;;;;;;;5118443;27;20079;-70
2023/10/08 03:29:08;;;;;;;4.15;0.90;;;;;;;;;;5136086;27;20122;-70
2023/10/08 03:34:15;;;;;;;5.63;1.20;;;;;;;;;;5119782;27;20043;-70
2023/10/08 03:36:44;;;;;;;8.40;1.52;;;;;;;;;;5135750;27;20080;-71
2023/10/08 03:39:14;;;;;;;8.88;1.30;;;;;;;;;;5118602;27;20039;-70
2023/10/08 03:41:59;;;;;;;5.55;1.50;;;;;;;;;;5117603;27;20087;-70
2023/10/08 03:44:29;;;;;;;10.07;1.27;;;;;;;;;;5117925;27;20071;-70
2023/10/08 03:46:57;;;;;;;6.90;1.17;;;;;;;;;;5136056;27;20394;-71
2023/10/08 03:51:53;;;;;;;6.60;1.30;;;;;;;;;;5135676;27;20092;-70
2023/10/08 03:54:20;;;;;;;7.78;1.42;;;;;;;;;;5135557;27;20072;-71
2023/10/08 03:56:48;;;;;;;10.77;1.40;;;;;;;;;;5100362;27;20043;-70
2023/10/08 04:01:59;;;;;;;8.38;1.90;;;;;;;;;;5135520;27;20043;-71
2023/10/08 04:04:48;;;;;;;15.07;2.10;;;;;;;;;;5135882;27;20043;-70
2023/10/08 04:11:05;;;;;;;10.13;1.70;;;;;;;;;;5135248;27;20115;-71
2023/10/08 04:12:50;;;;;;;9.35;1.90;;;;;;;;;;5106494;27;20444;-71
2023/10/08 04:15:16;;;;;;;10.00;2.17;;;;;;;;;;5117493;27;20051;-71
2023/10/08 04:17:50;;;;;;;8.93;1.85;;;;;;;;;;5117783;27;20049;-70
2023/10/08 04:21:00;;;;;;;10.95;2.20;;;;;;;;;;5117451;27;20472;-71
2023/10/08 04:23:20;;;;;;;13.02;2.53;;;;;;;;;;5131483;27;20394;-70
2023/10/08 04:25:53;;;;;;;10.13;2.40;;;;;;;;;;5116862;27;20120;-72
2023/10/08 04:28:20;;;;;;;9.95;2.38;;;;;;;;;;5134980;27;20047;-70
2023/10/08 04:31:01;;;;;;;10.32;2.13;;;;;;;;;;5135154;27;20541;-69
2023/10/08 04:33:33;;;;;;;8.70;1.98;;;;;;;;;;5134827;27;20168;-71
2023/10/08 04:36:01;;;;;;;9.80;2.00;;;;;;;;;;5135308;27;20086;-71
2023/10/08 04:38:36;;;;;;;12.38;1.80;;;;;;;;;;5134763;27;20086;-71
2023/10/08 04:41:08;;;;;;;8.32;1.80;;;;;;;;;;5134658;27;20054;-69
2023/10/08 04:43:37;;;;;;;7.68;1.70;;;;;;;;;;5116934;27;20046;-69
2023/10/08 04:46:19;;;;;;;15.65;2.13;;;;;;;;;;5135159;27;20047;-70
2023/10/08 04:48:51;;;;;;;8.52;2.22;;;;;;;;;;5134328;27;20051;-70
2023/10/08 04:51:22;;;;;;;10.68;1.65;;;;;;;;;;5134819;27;20592;-70
2023/10/08 04:53:49;;;;;;;11.10;1.83;;;;;;;;;;5135116;27;20384;-71
2023/10/08 04:56:22;;;;;;;8.47;1.90;;;;;;;;;;5134676;27;20165;-71
2023/10/08 04:58:50;;;;;;;11.10;1.83;;;;;;;;;;5134849;27;20047;-70
2023/10/08 05:01:38;;;;;;;9.57;1.92;;;;;;;;;;5134580;27;20398;-71
2023/10/08 05:12:15;;;;;;;10.35;2.13;;;;;;;;;;5130961;27;20124;-70
2023/10/08 05:14:55;;;;;;;9.85;2.38;;;;;;;;;;5134276;27;20479;-72
2023/10/08 05:17:22;;;;;;;14.00;2.28;;;;;;;;;;5134379;28;20059;-71
2023/10/08 05:27:57;;;;;;;14.02;2.53;;;;;;;;;;5088581;28;20168;-71
2023/10/08 05:44:14;;;;;;;9.48;2.10;;;;;;;;;;5133986;28;20432;-70
2023/10/08 05:57:52;;;;;;;17.98;2.35;;;;;;;;;;5133916;28;20051;-69
2023/10/08 06:07:47;;;;;;;13.73;2.00;;;;;;;;;;5115832;28;20076;-69
2023/10/08 06:10:41;;;;;;;15.95;2.08;;;;;;;;;;5116390;28;20043;-70
2023/10/08 06:13:06;;;;;;;10.55;1.77;;;;;;;;;;5133779;28;20078;-69
2023/10/08 06:16:31;;;;;;;18.10;2.08;;;;;;;;;;5134243;28;20047;-69
2023/10/08 06:18:26;;;;;;;14.63;2.00;;;;;;;;;;5101174;28;20076;-69
2023/10/08 06:20:54;;;;;;;;;;;;;;;;;;5134083;28;20054;-68
2023/10/08 06:23:22;;;;;;;14.35;2.20;;;;;;;;;;5115800;27;20007;-68
2023/10/08 06:25:56;;;;;;;15.75;1.83;;;;;;;;;;5119186;27;20126;-68
2023/10/08 06:28:25;;;;;;;16.55;2.35;;;;;;;;;;5137768;27;20054;-68
2023/10/08 06:30:55;;;;;;;14.70;1.73;;;;;;;;;;5119821;27;20206;-68
2023/10/08 06:33:22;;;;;;;9.70;2.38;;;;;;;;;;5137431;27;20047;-69
2023/10/08 06:38:33;;;;;;;13.35;1.90;;;;;;;;;;5137262;27;20051;-69
2023/10/08 06:41:00;;;;;;;11.27;2.00;;;;;;;;;;5119645;27;20043;-68
2023/10/08 06:43:27;;;;;;;14.50;2.58;;;;;;;;;;5136933;27;20117;-68
2023/10/08 06:45:53;;;;;;;12.50;2.50;;;;;;;;;;5137063;27;20054;-68
2023/10/08 06:48:23;;;;;;;16.15;2.33;;;;;;;;;;5136201;27;20125;-69
2023/10/08 06:50:50;;;;;;;15.90;2.58;;;;;;;;;;5118458;27;20050;-68
2023/10/08 06:53:18;;;;;;;13.25;2.30;;;;;;;;;;5136382;27;20039;-68
2023/10/08 06:55:44;;;;;;;14.15;2.05;;;;;;;;;;5137038;27;20392;-68
2023/10/08 06:58:11;;;;;;;11.20;1.98;;;;;;;;;;5136829;27;20043;-67
2023/10/08 07:00:39;;;;;;;12.23;1.90;;;;;;;;;;5136618;27;20047;-67
2023/10/08 07:03:15;;;;;;;13.45;1.65;;;;;;;;;;5136473;27;20407;-68
2023/10/08 07:06:09;;;;;;;10.98;1.55;;;;;;;;;;5137068;27;20368;-67
2023/10/08 07:08:35;;;;;;;11.82;2.42;;;;;;;;;;5136483;27;20057;-68
2023/10/08 07:11:06;;;;;;;14.23;2.72;;;;;;;;;;5101786;27;20471;-68
2023/10/08 07:13:35;;;;;;;15.95;3.58;;;;;;;;;;5117495;27;20047;-67
2023/10/08 07:16:04;;;;;;;15.20;2.28;;;;;;;;;;5118552;27;20055;-68
2023/10/08 07:18:33;;;;;;;16.05;2.13;;;;;;;;;;5136215;27;20390;-68
2023/10/08 07:21:00;;;;;;;16.15;2.42;;;;;;;;;;5135799;27;20039;-68
2023/10/08 07:23:29;;;;;;;15.30;2.45;;;;;;;;;;5118337;27;20100;-68
2023/10/08 07:26:13;;;;;;;16.65;2.33;;;;;;;;;;5136131;27;20098;-68
2023/10/08 07:28:42;;;;;;;13.70;2.10;;;;;;;;;;5117994;27;20051;-67
2023/10/08 07:31:15;;;;;;;15.55;2.50;;;;;;;;;;5135903;27;20146;-68
2023/10/08 07:33:43;;;;;;;17.38;2.90;;;;;;;;;;5135756;27;20042;-68
2023/10/08 07:36:14;;;;;;;16.52;2.60;;;;;;;;;;5135115;27;20082;-68
2023/10/08 07:38:43;;;;;;;17.30;2.75;;;;;;;;;;5136422;27;20104;-67
2023/10/08 07:41:12;;;;;;;13.02;2.55;;;;;;;;;;5135782;27;20047;-68
2023/10/08 07:43:42;;;;;;;13.23;2.38;;;;;;;;;;5100542;27;20043;-68
2023/10/08 07:46:09;;;;;;;14.32;2.10;;;;;;;;;;5135620;27;20043;-68
2023/10/08 07:48:35;;;;;;;;;;;;;;;;;;5136109;27;20083;-68
2023/10/08 07:51:02;;;;;;;14.45;2.08;;;;;;;;;;5118221;27;19927;-68
2023/10/08 07:53:37;;;;;;;14.13;2.55;;;;;;;;;;5134999;27;20042;-68
2023/10/08 07:56:06;;;;;;;16.00;2.25;;;;;;;;;;5100100;27;20070;-67
2023/10/08 07:58:35;;;;;;;13.40;1.73;;;;;;;;;;5135581;27;20073;-68
2023/10/08 08:01:06;;;;;;;14.82;1.60;;;;;;;;;;5135017;27;20525;-68
2023/10/08 08:03:34;;;;;;;21.52;1.40;;;;;;;;;;5135856;27;20042;-67
2023/10/08 08:06:00;;;;;;;13.40;1.67;;;;;;;;;;5117104;27;20047;-68
2023/10/08 08:08:27;;;;;;;14.65;1.40;;;;;;;;;;5135150;27;20047;-69
2023/10/08 08:11:03;;;;;;;10.20;1.50;;;;;;;;;;5117002;27;20389;-69
2023/10/08 08:13:30;;;;;;;14.23;2.22;;;;;;;;;;5135917;27;20126;-67
2023/10/08 08:15:58;;;;;;;10.40;1.80;;;;;;;;;;5135189;27;20062;-67
2023/10/08 08:18:32;;;;;;;10.27;1.20;;;;;;;;;;5134993;27;20402;-69
2023/10/08 08:21:01;;;;;;;16.25;1.73;;;;;;;;;;5134944;27;20054;-68
2023/10/08 08:23:28;;;;;;;11.18;1.58;;;;;;;;;;5134954;27;20051;-67
2023/10/08 08:26:11;;;;;;;10.93;1.77;;;;;;;;;;5117571;27;20309;-68
2023/10/08 08:28:37;;;;;;;12.75;1.42;;;;;;;;;;5116931;27;20058;-68
2023/10/08 08:31:04;;;;;;;19.95;2.28;;;;;;;;;;5134836;27;20080;-68
2023/10/08 08:33:52;;;;;;;12.63;1.60;;;;;;;;;;5134637;27;20425;-68
2023/10/08 08:36:17;;;;;;;10.38;1.58;;;;;;;;;;5134797;27;20054;-68
2023/10/08 08:38:43;;;;;;;18.83;1.67;;;;;;;;;;5116169;27;20047;-67
2023/10/08 08:41:12;;;;;;;11.02;1.63;;;;;;;;;;5134604;27;20054;-68
2023/10/08 08:43:43;;;;;;;15.15;1.80;;;;;;;;;;5116122;27;20043;-68
2023/10/08 08:46:12;;;;;;;11.10;1.73;;;;;;;;;;5134816;27;20043;-68
2023/10/08 08:48:41;;;;;;;19.00;2.33;;;;;;;;;;5134071;27;20143;-68
2023/10/08 08:51:09;;;;;;;15.80;1.75;;;;;;;;;;5135213;27;20062;-68
2023/10/08 08:53:36;;;;;;;12.68;2.58;;;;;;;;;;5134196;27;20055;-69
2023/10/08 08:56:05;;;;;;;11.05;1.73;;;;;;;;;;5134833;27;20047;-68
2023/10/08 08:58:34;;;;;;;8.57;1.50;;;;;;;;;;5116570;27;20047;-69
2023/10/08 09:01:03;;;;;;;14.73;1.80;;;;;;;;;;5134049;27;20471;-69
2023/10/08 09:03:33;;;;;;;13.05;1.40;;;;;;;;;;5138658;27;20399;-69
2023/10/08 09:05:59;;;;;;;16.65;2.00;;;;;;;;;;5117185;27;20090;-69
2023/10/08 09:08:31;;;;;;;15.73;1.75;;;;;;;;;;5116147;27;20093;-71
2023/10/08 09:11:08;;;;;;;19.85;1.98;;;;;;;;;;5115958;28;20390;-69
2023/10/08 09:13:34;;;;;;;14.65;1.33;;;;;;;;;;5116171;27;20084;-70
2023/10/08 09:16:27;;;;;;;14.32;1.48;;;;;;;;;;5116934;28;20051;-68
2023/10/08 09:18:53;;;;;;;12.32;1.88;;;;;;;;;;5111854;28;20376;-70
2023/10/08 09:21:22;;;;;;;10.63;1.20;;;;;;;;;;5134610;28;20481;-69
2023/10/08 09:23:52;;;;;;;14.65;1.20;;;;;;;;;;5116380;28;20445;-67
2023/10/08 09:26:19;;;;;;;13.20;1.13;;;;;;;;;;5133872;28;20096;-68
2023/10/08 09:28:46;;;;;;;9.40;1.40;;;;;;;;;;5133783;28;20043;-68
2023/10/08 09:31:13;;;;;;;16.77;1.83;;;;;;;;;;5115728;28;20054;-69
2023/10/08 09:33:40;;;;;;;12.10;1.25;;;;;;;;;;5115672;28;20043;-68
2023/10/08 09:36:10;;;;;;;16.80;1.58;;;;;;;;;;5115580;28;20043;-68
2023/10/08 09:38:37;;;;;;;11.50;1.65;;;;;;;;;;5133994;28;20046;-69
2023/10/08 09:41:03;;;;;;;21.02;1.80;;;;;;;;;;5133976;28;20083;-68
2023/10/08 09:43:34;;;;;;;21.58;1.85;;;;;;;;;;5133984;28;20494;-70
2023/10/08 09:46:14;;;;;;;14.55;1.30;;;;;;;;;;5134868;28;20093;-69
2023/10/08 09:48:43;;;;;;;21.40;1.83;;;;;;;;;;5133769;28;20054;-70
2023/10/08 09:51:12;;;;;;;14.55;1.70;;;;;;;;;;5134970;28;20115;-68
2023/10/08 09:53:48;;;;;;;12.43;1.55;;;;;;;;;;5115576;28;20427;-69
2023/10/08 09:56:15;;;;;;;14.05;1.38;;;;;;;;;;5116706;28;20047;-68
2023/10/08 09:58:43;;;;;;;15.38;1.50;;;;;;;;;;5116921;27;20368;-69
2023/10/08 10:01:09;;;;;;;21.40;1.40;;;;;;;;;;5137837;27;20428;-69
2023/10/08 10:03:36;;;;;;;15.90;2.08;;;;;;;;;;5137853;27;20138;-68
2023/10/08 10:06:02;;;;;;;14.13;1.08;;;;;;;;;;5119496;27;20055;-68
2023/10/08 10:08:35;;;;;;;19.10;1.67;;;;;;;;;;5119612;27;20051;-69
2023/10/08 10:11:02;;;;;;;20.00;1.42;;;;;;;;;;5138353;27;20054;-68
2023/10/08 10:13:29;;;;;;;19.38;1.60;;;;;;;;;;5139737;27;20051;-70
2023/10/08 10:15:54;;;;;;;;;;;;;;;;;;5120807;27;20098;-69
2023/10/08 10:18:25;;;;;;;18.23;1.42;;;;;;;;;;5120116;27;19923;-69
2023/10/08 10:21:00;;;;;;;15.15;1.30;;;;;;;;;;5137933;27;20054;-68
2023/10/08 10:23:43;;;;;;;14.07;1.17;;;;;;;;;;5137552;27;20082;-69
2023/10/08 10:26:26;;;;;;;15.15;1.02;;;;;;;;;;5137780;27;20057;-70
2023/10/08 10:29:22;;;;;;;13.93;1.25;;;;;;;;;;5119185;27;20122;-70
2023/10/08 10:31:56;;;;;;;16.52;1.20;;;;;;;;;;5101970;27;20108;-69
2023/10/08 10:34:27;;;;;;;12.48;1.17;;;;;;;;;;5137848;27;20088;-70
2023/10/08 10:36:59;;;;;;;18.00;1.50;;;;;;;;;;5137110;27;20118;-68
2023/10/08 10:39:33;;;;;;;16.00;0.90;;;;;;;;;;5119633;27;20461;-70
2023/10/08 10:42:06;;;;;;;19.60;1.40;;;;;;;;;;5137215;27;20043;-69
2023/10/08 10:44:33;;;;;;;19.20;1.60;;;;;;;;;;5119416;27;20060;-68
2023/10/08 10:47:42;;;;;;;18.88;1.00;;;;;;;;;;5137489;27;20085;-69
2023/10/08 10:49:52;;;;;;;20.17;1.30;;;;;;;;;;5125672;27;20108;-69
2023/10/08 10:52:32;;;;;;;17.52;1.48;;;;;;;;;;5137437;27;20054;-69
2023/10/08 10:55:59;;;;;;;17.45;1.00;;;;;;;;;;5137394;27;20046;-70
2023/10/08 10:58:03;;;;;;;13.90;0.82;;;;;;;;;;5122229;27;20058;-70
2023/10/08 11:03:03;;;;;;;12.52;0.90;;;;;;;;;;5136915;27;20054;-70
2023/10/08 11:05:36;;;;;;;14.15;1.20;;;;;;;;;;5137474;27;20067;-70
2023/10/08 11:08:06;;;;;;;17.67;1.50;;;;;;;;;;5137067;27;20122;-69
2023/10/08 11:10:52;;;;;;;22.13;1.27;;;;;;;;;;5136251;27;20118;-70
2023/10/08 11:13:22;;;;;;;17.58;1.05;;;;;;;;;;5136613;27;20054;-70
2023/10/08 11:15:51;;;;;;;12.13;0.90;;;;;;;;;;5118421;27;20104;-69
2023/10/08 11:18:22;;;;;;;24.48;1.48;;;;;;;;;;5136428;27;20121;-70
2023/10/08 11:20:54;;;;;;;12.55;0.90;;;;;;;;;;5101446;27;20500;-70
2023/10/08 11:23:36;;;;;;;22.50;1.65;;;;;;;;;;5136633;27;20050;-69
2023/10/08 11:26:04;;;;;;;18.27;1.08;;;;;;;;;;5100860;27;20055;-70
2023/10/08 11:28:35;;;;;;;15.50;1.08;;;;;;;;;;5117990;27;20055;-69
2023/10/08 11:31:10;;;;;;;21.42;0.90;;;;;;;;;;5101440;27;20046;-71
2023/10/08 11:33:40;;;;;;;19.77;1.10;;;;;;;;;;5136019;27;20059;-70
2023/10/08 11:36:18;;;;;;;13.27;0.90;;;;;;;;;;5135675;27;20502;-71
2023/10/08 11:38:47;;;;;;;11.75;1.10;;;;;;;;;;5136070;27;20131;-70
2023/10/08 11:41:20;;;;;;;13.70;1.27;;;;;;;;;;5102092;27;20188;-74
2023/10/08 11:43:53;;;;;;;15.45;1.23;;;;;;;;;;5117910;27;20471;-70
2023/10/08 11:46:21;;;;;;;18.17;1.52;;;;;;;;;;5117440;27;20126;-70
2023/10/08 11:48:47;;;;;;;17.52;1.27;;;;;;;;;;5135768;27;20055;-69
2023/10/08 11:51:17;;;;;;;15.18;0.98;;;;;;;;;;5118295;27;20082;-72
2023/10/08 11:53:44;;;;;;;11.43;0.77;;;;;;;;;;5117840;27;20046;-71
2023/10/08 11:56:13;;;;;;;;;;;;;;;;;;5135915;27;20096;-71
2023/10/08 11:58:39;;;;;;;18.58;1.20;;;;;;;;;;5136292;27;19926;-71
2023/10/08 12:01:06;;;;;;;15.02;1.02;;;;;;;;;;5135395;27;20049;-71
2023/10/08 12:03:34;;;;;;;14.30;1.02;;;;;;;;;;5135362;27;20054;-70
2023/10/08 12:06:01;;;;;;;15.68;1.20;;;;;;;;;;5135922;27;20118;-70
2023/10/08 12:08:27;;;;;;;19.23;1.10;;;;;;;;;;5135402;27;20054;-70
2023/10/08 12:11:00;;;;;;;11.52;0.77;;;;;;;;;;5116929;27;20285;-71
2023/10/08 12:13:26;;;;;;;8.52;0.90;;;;;;;;;;5135217;27;20051;-71
2023/10/08 12:15:58;;;;;;;13.93;0.90;;;;;;;;;;5134923;27;20505;-72
2023/10/08 12:18:26;;;;;;;13.10;1.27;;;;;;;;;;5117715;27;20051;-70
2023/10/08 12:20:53;;;;;;;10.23;1.10;;;;;;;;;;5116585;27;20039;-70
2023/10/08 12:23:26;;;;;;;11.02;1.10;;;;;;;;;;5134871;27;20400;-70
2023/10/08 12:25:59;;;;;;;8.10;1.45;;;;;;;;;;5116716;27;20107;-71
2023/10/08 12:28:27;;;;;;;11.15;1.50;;;;;;;;;;5135123;27;20398;-70
2023/10/08 12:30:53;;;;;;;15.55;1.35;;;;;;;;;;5117220;27;20057;-72
2023/10/08 12:33:26;;;;;;;12.90;1.15;;;;;;;;;;5120041;27;20051;-71
2023/10/08 12:36:05;;;;;;;10.77;1.20;;;;;;;;;;5136150;27;20047;-71
2023/10/08 12:38:31;;;;;;;16.55;1.58;;;;;;;;;;5135004;27;20062;-70
2023/10/08 12:40:59;;;;;;;15.93;1.35;;;;;;;;;;5134834;27;20043;-74
2023/10/08 12:43:28;;;;;;;13.05;1.13;;;;;;;;;;5134764;27;20047;-72
2023/10/08 12:45:56;;;;;;;13.20;1.10;;;;;;;;;;5135452;27;20419;-69
2023/10/08 12:48:24;;;;;;;20.00;1.60;;;;;;;;;;5134648;27;20108;-70
2023/10/08 12:50:56;;;;;;;10.88;1.45;;;;;;;;;;5116043;27;20063;-70
2023/10/08 12:53:39;;;;;;;12.20;1.50;;;;;;;;;;5134574;27;20126;-71
2023/10/08 12:56:14;;;;;;;18.02;1.80;;;;;;;;;;5134921;27;20159;-70
2023/10/08 12:58:41;;;;;;;9.70;1.33;;;;;;;;;;5116650;27;20042;-70
2023/10/08 13:01:09;;;;;;;;;;;;;;;;;;5134684;27;20045;-70
2023/10/08 13:03:41;;;;;;;14.82;1.85;;;;;;;;;;5134388;27;19988;-70
2023/10/08 13:06:11;;;;;;;10.77;0.82;;;;;;;;;;5134359;27;20054;-70
2023/10/08 13:08:37;;;;;;;15.45;1.63;;;;;;;;;;5116279;27;20119;-70
2023/10/08 13:11:04;;;;;;;10.00;1.23;;;;;;;;;;5135106;27;20054;-70
2023/10/08 13:13:37;;;;;;;12.40;1.55;;;;;;;;;;5116246;27;20047;-70
2023/10/08 13:16:07;;;;;;;11.02;1.40;;;;;;;;;;5115968;28;20372;-70
2023/10/08 13:18:33;;;;;;;13.23;1.30;;;;;;;;;;5115786;28;20082;-71
2023/10/08 13:21:00;;;;;;;10.93;1.45;;;;;;;;;;5135129;28;20054;-69
2023/10/08 13:23:27;;;;;;;11.68;1.50;;;;;;;;;;5116495;28;20382;-70
2023/10/08 13:26:03;;;;;;;13.73;1.10;;;;;;;;;;5134270;28;20122;-71
2023/10/08 13:28:30;;;;;;;14.30;1.63;;;;;;;;;;5115960;28;20084;-70
2023/10/08 13:30:56;;;;;;;12.63;1.60;;;;;;;;;;5115682;28;20432;-71
2023/10/08 13:33:22;;;;;;;14.17;2.00;;;;;;;;;;5118209;27;20079;-71
2023/10/08 13:35:52;;;;;;;12.02;1.25;;;;;;;;;;5138230;27;20301;-69
2023/10/08 13:38:19;;;;;;;16.60;1.50;;;;;;;;;;5138399;27;20043;-72
2023/10/08 13:41:01;;;;;;;11.75;1.20;;;;;;;;;;5139264;27;20074;-71
2023/10/08 13:43:33;;;;;;;14.43;1.50;;;;;;;;;;5139569;27;20105;-71
2023/10/08 13:46:13;;;;;;;9.95;2.10;;;;;;;;;;5103784;27;20137;-71
2023/10/08 13:48:39;;;;;;;11.20;1.98;;;;;;;;;;5137940;27;20047;-69
2023/10/08 13:51:10;;;;;;;13.10;2.63;;;;;;;;;;5119200;27;20094;-70
2023/10/08 13:53:39;;;;;;;11.57;1.88;;;;;;;;;;5138763;27;20390;-71
2023/10/08 13:56:05;;;;;;;20.88;2.45;;;;;;;;;;5137778;27;20111;-70
2023/10/08 13:58:35;;;;;;;8.98;1.70;;;;;;;;;;5119482;27;20053;-71
2023/10/08 14:01:01;;;;;;;13.20;2.13;;;;;;;;;;5119372;27;20063;-69
2023/10/08 14:03:31;;;;;;;12.65;2.33;;;;;;;;;;5138073;27;20548;-70
2023/10/08 14:06:04;;;;;;;13.35;2.95;;;;;;;;;;5137874;27;20073;-70
2023/10/08 14:08:33;;;;;;;17.63;3.00;;;;;;;;;;5137877;27;20051;-69
2023/10/08 14:11:02;;;;;;;20.02;3.00;;;;;;;;;;5137621;27;20051;-69
2023/10/08 14:13:31;;;;;;;13.25;3.25;;;;;;;;;;5137834;27;20050;-69
2023/10/08 14:15:58;;;;;;;17.08;3.40;;;;;;;;;;5119370;27;20065;-69
2023/10/08 14:18:29;;;;;;;17.33;3.92;;;;;;;;;;5119390;27;20074;-71
2023/10/08 14:20:55;;;;;;;14.30;3.30;;;;;;;;;;5137600;27;20116;-70
2023/10/08 14:23:25;;;;;;;16.25;3.40;;;;;;;;;;5137400;27;20188;-71
2023/10/08 14:26:03;;;;;;;16.00;4.10;;;;;;;;;;5137426;27;20065;-71
2023/10/08 14:28:43;;;;;;;11.45;3.75;;;;;;;;;;5120044;27;20113;-70
2023/10/08 14:31:15;;;;;;;12.65;3.22;;;;;;;;;;5104898;27;20172;-71
2023/10/08 14:34:05;;;;;;;11.85;3.50;;;;;;;;;;5137440;27;20100;-70
2023/10/08 14:42:55;;;;;;;14.38;3.47;;;;;;;;;;5119795;27;20142;-69
2023/10/08 14:45:00;;;;;;;15.48;3.88;;;;;;;;;;5137230;27;20078;-70
2023/10/08 14:47:30;;;;;;;16.55;4.18;;;;;;;;;;5118664;27;20047;-69
2023/10/08 14:49:56;;;;;;;12.13;3.83;;;;;;;;;;5120020;27;20138;-70
2023/10/08 14:52:22;;;;;;;13.23;3.75;;;;;;;;;;5140442;27;20051;-70
2023/10/08 14:54:51;;;;;;;12.83;3.07;;;;;;;;;;5136953;27;20130;-70
2023/10/08 14:57:18;;;;;;;13.50;3.38;;;;;;;;;;5118216;27;20332;-70
2023/10/08 14:59:44;;;;;;;;;;;;;;;;;;5102248;27;20051;-71
2023/10/08 15:02:10;;;;;;;11.98;3.28;;;;;;;;;;5118248;27;19942;-71
2023/10/08 15:04:39;;;;;;;9.88;2.95;;;;;;;;;;5136526;27;20130;-70
2023/10/08 15:07:11;;;;;;;16.85;3.53;;;;;;;;;;5136569;27;20126;-70
2023/10/08 15:09:41;;;;;;;14.75;3.40;;;;;;;;;;5136717;27;20051;-70
2023/10/08 15:12:08;;;;;;;13.75;3.78;;;;;;;;;;5136380;27;20047;-70
2023/10/08 15:14:34;;;;;;;11.95;3.00;;;;;;;;;;5136277;27;20046;-70
2023/10/08 15:17:01;;;;;;;14.32;3.90;;;;;;;;;;5118965;27;20390;-70
2023/10/08 15:19:27;;;;;;;14.87;3.53;;;;;;;;;;5118949;27;20091;-71
2023/10/08 15:21:53;;;;;;;15.63;3.13;;;;;;;;;;5117361;27;20562;-70
2023/10/08 15:24:22;;;;;;;14.33;3.97;;;;;;;;;;5136307;27;20104;-70
2023/10/08 15:26:49;;;;;;;11.65;3.70;;;;;;;;;;5136389;27;20046;-70
2023/10/08 15:29:16;;;;;;;16.48;3.28;;;;;;;;;;5117933;27;20054;-70
2023/10/08 15:31:42;;;;;;;14.15;3.53;;;;;;;;;;5136669;27;20089;-70
2023/10/08 15:34:12;;;;;;;14.68;4.10;;;;;;;;;;5136076;27;20402;-69
2023/10/08 15:36:38;;;;;;;19.35;3.75;;;;;;;;;;5118370;27;20053;-71
2023/10/08 15:39:04;;;;;;;14.50;3.17;;;;;;;;;;5136218;27;20039;-71
2023/10/08 15:41:31;;;;;;;15.57;3.13;;;;;;;;;;5118689;27;20094;-71
2023/10/08 15:43:58;;;;;;;11.80;2.80;;;;;;;;;;5136259;27;20080;-70
2023/10/08 15:46:28;;;;;;;13.25;2.83;;;;;;;;;;5117824;27;20043;-70
2023/10/08 15:48:54;;;;;;;13.85;2.53;;;;;;;;;;5135927;27;20039;-70
2023/10/08 15:51:21;;;;;;;9.33;1.90;;;;;;;;;;5136211;27;20051;-70
2023/10/08 15:53:47;;;;;;;8.32;2.00;;;;;;;;;;5117287;27;20047;-71
2023/10/08 15:56:13;;;;;;;14.20;1.92;;;;;;;;;;5134606;27;20081;-71
2023/10/08 15:58:40;;;;;;;9.47;1.73;;;;;;;;;;5135906;27;20047;-70
2023/10/08 16:01:07;;;;;;;10.45;2.03;;;;;;;;;;5135559;27;20315;-69
2023/10/08 16:03:33;;;;;;;12.53;1.83;;;;;;;;;;5117339;27;20050;-71
2023/10/08 16:05:59;;;;;;;8.97;2.20;;;;;;;;;;5100833;27;20379;-70
2023/10/08 16:08:25;;;;;;;16.40;2.10;;;;;;;;;;5135424;27;20042;-70
2023/10/08 16:10:51;;;;;;;13.70;2.03;;;;;;;;;;5117178;27;20047;-71